sensor_id;sensor_type;location;lat;lon;timestamp;temperature;humidity
54680;DHT22;40578;53.178;5.846;2023-07-20T00:01:15;13.30;99.90
54680;DHT22;40578;53.178;5.846;2023-07-20T00:03:41;13.20;99.90
54680;DHT22;40578;53.178;5.846;2023-07-20T00:06:06;13.20;99.90
54680;DHT22;40578;53.178;5.846;2023-07-20T00:08:32;13.10;99.90
54680;DHT22;40578;53.178;5.846;2023-07-20T00:10:58;13.20;99.90
54680;DHT22;40578;53.178;5.846;2023-07-20T00:13:24;13.10;99.90
54680;DHT22;40578;53.178;5.846;2023-07-20T00:15:50;12.90;99.90
54680;DHT22;40578;53.178;5.846;2023-07-20T00:18:16;12.90;99.90
54680;DHT22;40578;53.178;5.846;2023-07-20T00:20:42;12.90;99.90
54680;DHT22;40578;53.178;5.846;2023-07-20T00:23:07;12.70;99.90
54680;DHT22;40578;53.178;5.846;2023-07-20T00:25:33;12.60;99.90
54680;DHT22;40578;53.178;5.846;2023-07-20T00:27:59;12.60;99.90
54680;DHT22;40578;53.178;5.846;2023-07-20T00:30:25;12.60;99.90
54680;DHT22;40578;53.178;5.846;2023-07-20T00:32:50;13.00;99.90
54680;DHT22;40578;53.178;5.846;2023-07-20T00:35:16;12.50;99.90
54680;DHT22;40578;53.178;5.846;2023-07-20T00:37:42;12.40;99.90
54680;DHT22;40578;53.178;5.846;2023-07-20T00:40:07;12.40;99.90
54680;DHT22;40578;53.178;5.846;2023-07-20T00:42:33;12.50;99.90
54680;DHT22;40578;53.178;5.846;2023-07-20T00:44:59;12.30;99.90
54680;DHT22;40578;53.178;5.846;2023-07-20T00:47:26;12.40;99.90
54680;DHT22;40578;53.178;5.846;2023-07-20T00:49:52;12.40;99.90
54680;DHT22;40578;53.178;5.846;2023-07-20T00:52:19;12.40;99.90
54680;DHT22;40578;53.178;5.846;2023-07-20T00:54:45;12.40;99.90
54680;DHT22;40578;53.178;5.846;2023-07-20T00:57:16;12.20;99.90
54680;DHT22;40578;53.178;5.846;2023-07-20T00:59:43;12.10;99.90
54680;DHT22;40578;53.178;5.846;2023-07-20T01:02:09;12.20;99.90
54680;DHT22;40578;53.178;5.846;2023-07-20T01:04:35;12.20;99.90
54680;DHT22;40578;53.178;5.846;2023-07-20T01:07:11;12.20;99.90
54680;DHT22;40578;53.178;5.846;2023-07-20T01:10:06;12.20;99.90
54680;DHT22;40578;53.178;5.846;2023-07-20T01:15:04;11.90;99.90
54680;DHT22;40578;53.178;5.846;2023-07-20T01:17:30;12.00;99.90
54680;DHT22;40578;53.178;5.846;2023-07-20T01:19:55;12.00;99.90
54680;DHT22;40578;53.178;5.846;2023-07-20T01:25:18;11.90;99.90
54680;DHT22;40578;53.178;5.846;2023-07-20T01:28:29;11.90;99.90
54680;DHT22;40578;53.178;5.846;2023-07-20T01:33:56;11.80;99.90
54680;DHT22;40578;53.178;5.846;2023-07-20T01:36:24;11.70;99.90
54680;DHT22;40578;53.178;5.846;2023-07-20T01:38:51;11.70;99.90
54680;DHT22;40578;53.178;5.846;2023-07-20T01:41:17;11.70;99.90
54680;DHT22;40578;53.178;5.846;2023-07-20T01:43:43;11.60;99.90
54680;DHT22;40578;53.178;5.846;2023-07-20T01:46:09;11.80;99.90
54680;DHT22;40578;53.178;5.846;2023-07-20T01:48:35;11.80;99.90
54680;DHT22;40578;53.178;5.846;2023-07-20T01:51:01;11.70;99.90
54680;DHT22;40578;53.178;5.846;2023-07-20T01:53:26;11.70;99.90
54680;DHT22;40578;53.178;5.846;2023-07-20T01:55:53;11.50;99.90
54680;DHT22;40578;53.178;5.846;2023-07-20T01:58:20;11.40;99.90
54680;DHT22;40578;53.178;5.846;2023-07-20T02:00:45;11.40;99.90
54680;DHT22;40578;53.178;5.846;2023-07-20T02:03:11;11.50;99.90
54680;DHT22;40578;53.178;5.846;2023-07-20T02:05:37;11.40;99.90
54680;DHT22;40578;53.178;5.846;2023-07-20T02:08:03;11.30;99.90
54680;DHT22;40578;53.178;5.846;2023-07-20T02:10:29;11.30;99.90
54680;DHT22;40578;53.178;5.846;2023-07-20T02:12:54;11.40;99.90
54680;DHT22;40578;53.178;5.846;2023-07-20T02:15:21;11.30;99.90
54680;DHT22;40578;53.178;5.846;2023-07-20T02:17:47;11.30;99.90
54680;DHT22;40578;53.178;5.846;2023-07-20T02:20:13;11.30;99.90
54680;DHT22;40578;53.178;5.846;2023-07-20T02:22:39;11.30;99.90
54680;DHT22;40578;53.178;5.846;2023-07-20T02:25:06;11.30;99.90
54680;DHT22;40578;53.178;5.846;2023-07-20T02:27:33;11.20;99.90
54680;DHT22;40578;53.178;5.846;2023-07-20T02:29:58;11.40;99.90
54680;DHT22;40578;53.178;5.846;2023-07-20T02:32:24;11.40;99.90
54680;DHT22;40578;53.178;5.846;2023-07-20T02:34:50;12.20;99.90
54680;DHT22;40578;53.178;5.846;2023-07-20T02:37:16;11.20;99.90
54680;DHT22;40578;53.178;5.846;2023-07-20T02:39:42;11.40;99.90
54680;DHT22;40578;53.178;5.846;2023-07-20T02:42:08;11.30;99.90
54680;DHT22;40578;53.178;5.846;2023-07-20T02:44:33;11.20;99.90
54680;DHT22;40578;53.178;5.846;2023-07-20T02:46:59;11.30;99.90
54680;DHT22;40578;53.178;5.846;2023-07-20T02:49:24;11.00;99.90
54680;DHT22;40578;53.178;5.846;2023-07-20T02:51:50;12.00;99.90
54680;DHT22;40578;53.178;5.846;2023-07-20T02:54:16;11.10;99.90
54680;DHT22;40578;53.178;5.846;2023-07-20T02:56:41;11.20;99.90
54680;DHT22;40578;53.178;5.846;2023-07-20T02:59:07;11.10;99.90
54680;DHT22;40578;53.178;5.846;2023-07-20T03:01:33;11.00;99.90
54680;DHT22;40578;53.178;5.846;2023-07-20T03:03:58;11.00;99.90
54680;DHT22;40578;53.178;5.846;2023-07-20T03:06:24;10.90;99.90
54680;DHT22;40578;53.178;5.846;2023-07-20T03:08:50;11.00;99.90
54680;DHT22;40578;53.178;5.846;2023-07-20T03:11:18;10.90;99.90
54680;DHT22;40578;53.178;5.846;2023-07-20T03:13:44;10.80;99.90
54680;DHT22;40578;53.178;5.846;2023-07-20T03:16:11;10.80;99.90
54680;DHT22;40578;53.178;5.846;2023-07-20T03:18:40;10.80;99.90
54680;DHT22;40578;53.178;5.846;2023-07-20T03:21:08;10.80;99.90
54680;DHT22;40578;53.178;5.846;2023-07-20T03:23:33;10.80;99.90
54680;DHT22;40578;53.178;5.846;2023-07-20T03:26:00;10.90;99.90
54680;DHT22;40578;53.178;5.846;2023-07-20T03:28:26;10.90;99.90
54680;DHT22;40578;53.178;5.846;2023-07-20T03:30:58;10.90;99.90
54680;DHT22;40578;53.178;5.846;2023-07-20T03:33:26;10.80;99.90
54680;DHT22;40578;53.178;5.846;2023-07-20T03:35:53;11.00;99.90
54680;DHT22;40578;53.178;5.846;2023-07-20T03:38:19;11.50;99.90
54680;DHT22;40578;53.178;5.846;2023-07-20T03:40:53;11.10;99.90
54680;DHT22;40578;53.178;5.846;2023-07-20T03:43:19;11.20;99.90
54680;DHT22;40578;53.178;5.846;2023-07-20T03:45:45;11.00;99.90
54680;DHT22;40578;53.178;5.846;2023-07-20T03:48:11;11.00;99.90
54680;DHT22;40578;53.178;5.846;2023-07-20T03:50:37;10.90;99.90
54680;DHT22;40578;53.178;5.846;2023-07-20T03:53:03;11.00;99.90
54680;DHT22;40578;53.178;5.846;2023-07-20T03:55:29;10.80;99.90
54680;DHT22;40578;53.178;5.846;2023-07-20T03:57:54;10.90;99.90
54680;DHT22;40578;53.178;5.846;2023-07-20T04:00:20;11.00;99.90
54680;DHT22;40578;53.178;5.846;2023-07-20T04:02:47;10.80;99.90
54680;DHT22;40578;53.178;5.846;2023-07-20T04:05:13;11.00;99.90
54680;DHT22;40578;53.178;5.846;2023-07-20T04:07:38;10.80;99.90
54680;DHT22;40578;53.178;5.846;2023-07-20T04:10:04;10.80;99.90
54680;DHT22;40578;53.178;5.846;2023-07-20T04:12:30;10.80;99.90
54680;DHT22;40578;53.178;5.846;2023-07-20T04:14:55;10.80;99.90
54680;DHT22;40578;53.178;5.846;2023-07-20T04:17:21;10.80;99.90
54680;DHT22;40578;53.178;5.846;2023-07-20T04:19:46;10.80;99.90
54680;DHT22;40578;53.178;5.846;2023-07-20T04:22:12;10.90;99.90
54680;DHT22;40578;53.178;5.846;2023-07-20T04:24:43;10.90;99.90
54680;DHT22;40578;53.178;5.846;2023-07-20T04:27:09;10.80;99.90
54680;DHT22;40578;53.178;5.846;2023-07-20T04:29:35;11.00;99.90
54680;DHT22;40578;53.178;5.846;2023-07-20T04:32:00;10.90;99.90
54680;DHT22;40578;53.178;5.846;2023-07-20T04:34:26;11.00;99.90
54680;DHT22;40578;53.178;5.846;2023-07-20T04:36:51;11.20;99.90
54680;DHT22;40578;53.178;5.846;2023-07-20T04:39:17;11.00;99.90
54680;DHT22;40578;53.178;5.846;2023-07-20T04:41:43;11.20;99.90
54680;DHT22;40578;53.178;5.846;2023-07-20T04:44:08;11.20;99.90
54680;DHT22;40578;53.178;5.846;2023-07-20T04:46:34;11.30;99.90
54680;DHT22;40578;53.178;5.846;2023-07-20T04:49:00;11.20;99.90
54680;DHT22;40578;53.178;5.846;2023-07-20T04:51:27;11.20;99.90
54680;DHT22;40578;53.178;5.846;2023-07-20T04:53:52;11.30;99.90
54680;DHT22;40578;53.178;5.846;2023-07-20T04:56:18;11.30;99.90
54680;DHT22;40578;53.178;5.846;2023-07-20T04:58:43;11.30;99.90
54680;DHT22;40578;53.178;5.846;2023-07-20T05:01:09;11.50;99.90
54680;DHT22;40578;53.178;5.846;2023-07-20T05:03:35;12.10;99.90
54680;DHT22;40578;53.178;5.846;2023-07-20T05:06:00;12.70;99.90
54680;DHT22;40578;53.178;5.846;2023-07-20T05:08:26;12.30;99.90
54680;DHT22;40578;53.178;5.846;2023-07-20T05:10:52;12.30;99.90
54680;DHT22;40578;53.178;5.846;2023-07-20T05:13:18;12.40;99.90
54680;DHT22;40578;53.178;5.846;2023-07-20T05:15:43;12.50;99.90
54680;DHT22;40578;53.178;5.846;2023-07-20T05:18:09;13.20;99.90
54680;DHT22;40578;53.178;5.846;2023-07-20T05:20:35;13.70;99.90
54680;DHT22;40578;53.178;5.846;2023-07-20T05:23:01;14.60;99.90
54680;DHT22;40578;53.178;5.846;2023-07-20T05:25:27;15.60;99.90
54680;DHT22;40578;53.178;5.846;2023-07-20T05:27:52;16.50;99.90
54680;DHT22;40578;53.178;5.846;2023-07-20T05:30:20;17.30;99.90
54680;DHT22;40578;53.178;5.846;2023-07-20T05:32:46;17.20;99.90
54680;DHT22;40578;53.178;5.846;2023-07-20T05:35:17;16.60;99.90
54680;DHT22;40578;53.178;5.846;2023-07-20T05:37:43;15.90;99.90
54680;DHT22;40578;53.178;5.846;2023-07-20T05:40:09;15.50;99.90
54680;DHT22;40578;53.178;5.846;2023-07-20T05:42:37;15.00;99.90
54680;DHT22;40578;53.178;5.846;2023-07-20T05:45:03;14.60;99.90
54680;DHT22;40578;53.178;5.846;2023-07-20T05:47:29;14.50;99.90
54680;DHT22;40578;53.178;5.846;2023-07-20T05:49:55;14.70;99.90
54680;DHT22;40578;53.178;5.846;2023-07-20T05:52:20;14.80;99.90
54680;DHT22;40578;53.178;5.846;2023-07-20T05:54:46;14.70;99.90
54680;DHT22;40578;53.178;5.846;2023-07-20T05:57:11;14.70;99.90
54680;DHT22;40578;53.178;5.846;2023-07-20T05:59:37;14.70;99.90
54680;DHT22;40578;53.178;5.846;2023-07-20T06:02:04;14.70;99.90
54680;DHT22;40578;53.178;5.846;2023-07-20T06:04:29;14.60;99.90
54680;DHT22;40578;53.178;5.846;2023-07-20T06:06:55;14.80;99.90
54680;DHT22;40578;53.178;5.846;2023-07-20T06:09:21;14.80;99.90
54680;DHT22;40578;53.178;5.846;2023-07-20T06:11:46;15.80;99.90
54680;DHT22;40578;53.178;5.846;2023-07-20T06:14:12;15.00;99.90
54680;DHT22;40578;53.178;5.846;2023-07-20T06:16:38;15.90;99.90
54680;DHT22;40578;53.178;5.846;2023-07-20T06:19:03;16.60;99.90
54680;DHT22;40578;53.178;5.846;2023-07-20T06:21:29;16.90;99.90
54680;DHT22;40578;53.178;5.846;2023-07-20T06:23:55;16.50;99.90
54680;DHT22;40578;53.178;5.846;2023-07-20T06:26:20;16.10;99.90
54680;DHT22;40578;53.178;5.846;2023-07-20T06:28:46;15.90;99.90
54680;DHT22;40578;53.178;5.846;2023-07-20T06:31:12;15.80;99.90
54680;DHT22;40578;53.178;5.846;2023-07-20T06:33:37;15.70;99.90
54680;DHT22;40578;53.178;5.846;2023-07-20T06:36:03;15.90;99.90
54680;DHT22;40578;53.178;5.846;2023-07-20T06:38:29;15.60;99.90
54680;DHT22;40578;53.178;5.846;2023-07-20T06:40:55;15.60;99.90
54680;DHT22;40578;53.178;5.846;2023-07-20T06:43:20;15.60;99.90
54680;DHT22;40578;53.178;5.846;2023-07-20T06:45:51;15.60;99.90
54680;DHT22;40578;53.178;5.846;2023-07-20T06:48:19;15.70;99.90
54680;DHT22;40578;53.178;5.846;2023-07-20T06:50:45;15.70;99.90
54680;DHT22;40578;53.178;5.846;2023-07-20T06:53:10;15.70;99.90
54680;DHT22;40578;53.178;5.846;2023-07-20T06:55:36;15.80;99.90
54680;DHT22;40578;53.178;5.846;2023-07-20T06:58:01;15.80;99.90
54680;DHT22;40578;53.178;5.846;2023-07-20T07:00:27;15.80;99.90
54680;DHT22;40578;53.178;5.846;2023-07-20T07:02:52;15.70;99.90
54680;DHT22;40578;53.178;5.846;2023-07-20T07:05:19;15.80;99.90
54680;DHT22;40578;53.178;5.846;2023-07-20T07:07:45;15.50;99.90
54680;DHT22;40578;53.178;5.846;2023-07-20T07:10:11;15.50;99.90
54680;DHT22;40578;53.178;5.846;2023-07-20T07:12:36;15.50;99.90
54680;DHT22;40578;53.178;5.846;2023-07-20T07:15:03;15.50;99.90
54680;DHT22;40578;53.178;5.846;2023-07-20T07:17:29;15.60;99.90
54680;DHT22;40578;53.178;5.846;2023-07-20T07:19:55;15.50;99.90
54680;DHT22;40578;53.178;5.846;2023-07-20T07:22:21;15.60;99.90
54680;DHT22;40578;53.178;5.846;2023-07-20T07:24:47;15.60;99.90
54680;DHT22;40578;53.178;5.846;2023-07-20T07:27:13;15.60;99.90
54680;DHT22;40578;53.178;5.846;2023-07-20T07:29:41;15.60;99.90
54680;DHT22;40578;53.178;5.846;2023-07-20T07:32:09;15.70;99.90
54680;DHT22;40578;53.178;5.846;2023-07-20T07:34:36;15.80;99.90
54680;DHT22;40578;53.178;5.846;2023-07-20T07:37:03;16.00;99.90
54680;DHT22;40578;53.178;5.846;2023-07-20T07:39:28;16.00;99.90
54680;DHT22;40578;53.178;5.846;2023-07-20T07:41:55;16.70;99.90
54680;DHT22;40578;53.178;5.846;2023-07-20T07:44:21;16.00;99.90
54680;DHT22;40578;53.178;5.846;2023-07-20T07:46:46;15.80;99.90
54680;DHT22;40578;53.178;5.846;2023-07-20T07:49:12;15.80;99.90
54680;DHT22;40578;53.178;5.846;2023-07-20T07:51:38;15.70;99.90
54680;DHT22;40578;53.178;5.846;2023-07-20T07:54:04;15.90;99.90
54680;DHT22;40578;53.178;5.846;2023-07-20T07:56:30;16.00;99.90
54680;DHT22;40578;53.178;5.846;2023-07-20T07:58:55;16.20;99.90
54680;DHT22;40578;53.178;5.846;2023-07-20T08:01:21;16.40;99.90
54680;DHT22;40578;53.178;5.846;2023-07-20T08:03:47;16.40;99.90
54680;DHT22;40578;53.178;5.846;2023-07-20T08:06:13;16.40;99.90
54680;DHT22;40578;53.178;5.846;2023-07-20T08:08:39;16.50;99.90
54680;DHT22;40578;53.178;5.846;2023-07-20T08:11:05;16.60;99.90
54680;DHT22;40578;53.178;5.846;2023-07-20T08:13:31;16.60;99.90
54680;DHT22;40578;53.178;5.846;2023-07-20T08:15:57;16.70;99.90
54680;DHT22;40578;53.178;5.846;2023-07-20T08:18:23;16.60;99.90
54680;DHT22;40578;53.178;5.846;2023-07-20T08:20:49;16.60;99.90
54680;DHT22;40578;53.178;5.846;2023-07-20T08:23:15;16.50;99.90
54680;DHT22;40578;53.178;5.846;2023-07-20T08:25:41;16.60;99.90
54680;DHT22;40578;53.178;5.846;2023-07-20T08:28:14;16.70;99.90
54680;DHT22;40578;53.178;5.846;2023-07-20T08:30:45;16.80;99.90
54680;DHT22;40578;53.178;5.846;2023-07-20T08:33:13;16.90;99.90
54680;DHT22;40578;53.178;5.846;2023-07-20T08:35:39;16.90;99.90
54680;DHT22;40578;53.178;5.846;2023-07-20T08:38:05;16.80;99.90
54680;DHT22;40578;53.178;5.846;2023-07-20T08:40:35;17.00;99.90
54680;DHT22;40578;53.178;5.846;2023-07-20T08:43:04;17.20;99.90
54680;DHT22;40578;53.178;5.846;2023-07-20T08:45:32;17.30;99.90
54680;DHT22;40578;53.178;5.846;2023-07-20T08:47:58;17.40;99.90
54680;DHT22;40578;53.178;5.846;2023-07-20T08:50:27;17.10;99.90
54680;DHT22;40578;53.178;5.846;2023-07-20T08:52:56;18.20;99.90
54680;DHT22;40578;53.178;5.846;2023-07-20T08:55:23;16.90;99.90
54680;DHT22;40578;53.178;5.846;2023-07-20T08:57:57;16.70;99.90
54680;DHT22;40578;53.178;5.846;2023-07-20T09:00:24;16.80;99.90
54680;DHT22;40578;53.178;5.846;2023-07-20T09:02:54;16.90;99.90
54680;DHT22;40578;53.178;5.846;2023-07-20T09:05:20;17.20;99.90
54680;DHT22;40578;53.178;5.846;2023-07-20T09:07:46;17.40;99.90
54680;DHT22;40578;53.178;5.846;2023-07-20T09:10:12;17.60;99.90
54680;DHT22;40578;53.178;5.846;2023-07-20T09:12:43;17.60;99.90
54680;DHT22;40578;53.178;5.846;2023-07-20T09:15:10;17.50;99.90
54680;DHT22;40578;53.178;5.846;2023-07-20T09:17:36;17.50;99.90
54680;DHT22;40578;53.178;5.846;2023-07-20T09:20:07;17.40;99.90
54680;DHT22;40578;53.178;5.846;2023-07-20T09:22:39;17.30;99.90
54680;DHT22;40578;53.178;5.846;2023-07-20T09:25:17;17.20;99.90
54680;DHT22;40578;53.178;5.846;2023-07-20T09:27:46;17.10;99.90
54680;DHT22;40578;53.178;5.846;2023-07-20T09:30:12;17.30;99.90
54680;DHT22;40578;53.178;5.846;2023-07-20T09:32:46;17.00;99.90
54680;DHT22;40578;53.178;5.846;2023-07-20T09:35:13;17.20;99.90
54680;DHT22;40578;53.178;5.846;2023-07-20T09:37:40;17.40;99.90
54680;DHT22;40578;53.178;5.846;2023-07-20T09:40:07;17.50;99.90
54680;DHT22;40578;53.178;5.846;2023-07-20T09:42:36;17.60;99.90
54680;DHT22;40578;53.178;5.846;2023-07-20T09:45:02;18.20;99.90
54680;DHT22;40578;53.178;5.846;2023-07-20T09:47:28;17.60;99.90
54680;DHT22;40578;53.178;5.846;2023-07-20T09:49:58;17.50;99.90
54680;DHT22;40578;53.178;5.846;2023-07-20T09:52:26;17.70;99.90
54680;DHT22;40578;53.178;5.846;2023-07-20T09:54:51;17.50;99.90
54680;DHT22;40578;53.178;5.846;2023-07-20T09:57:18;17.60;99.90
54680;DHT22;40578;53.178;5.846;2023-07-20T09:59:43;17.60;99.90
54680;DHT22;40578;53.178;5.846;2023-07-20T10:02:21;17.70;99.90
54680;DHT22;40578;53.178;5.846;2023-07-20T10:04:52;18.30;99.90
54680;DHT22;40578;53.178;5.846;2023-07-20T10:07:19;18.00;99.90
54680;DHT22;40578;53.178;5.846;2023-07-20T10:09:48;18.10;99.90
54680;DHT22;40578;53.178;5.846;2023-07-20T10:12:17;18.30;99.90
54680;DHT22;40578;53.178;5.846;2023-07-20T10:14:52;18.40;99.90
54680;DHT22;40578;53.178;5.846;2023-07-20T10:17:21;18.40;99.90
54680;DHT22;40578;53.178;5.846;2023-07-20T10:19:49;18.40;99.90
54680;DHT22;40578;53.178;5.846;2023-07-20T10:22:19;18.30;99.90
54680;DHT22;40578;53.178;5.846;2023-07-20T10:24:46;18.20;99.90
54680;DHT22;40578;53.178;5.846;2023-07-20T10:27:13;18.30;99.90
54680;DHT22;40578;53.178;5.846;2023-07-20T10:29:40;18.60;99.90
54680;DHT22;40578;53.178;5.846;2023-07-20T10:32:06;18.80;99.90
54680;DHT22;40578;53.178;5.846;2023-07-20T10:34:33;18.90;99.90
54680;DHT22;40578;53.178;5.846;2023-07-20T10:36:59;18.90;99.90
54680;DHT22;40578;53.178;5.846;2023-07-20T10:39:30;18.90;99.90
54680;DHT22;40578;53.178;5.846;2023-07-20T10:42:09;19.10;99.90
54680;DHT22;40578;53.178;5.846;2023-07-20T10:44:37;19.20;99.90
54680;DHT22;40578;53.178;5.846;2023-07-20T10:47:08;19.20;99.90
54680;DHT22;40578;53.178;5.846;2023-07-20T10:49:34;19.00;99.90
54680;DHT22;40578;53.178;5.846;2023-07-20T10:52:04;18.60;99.90
54680;DHT22;40578;53.178;5.846;2023-07-20T10:57:49;18.50;99.90
54680;DHT22;40578;53.178;5.846;2023-07-20T11:00:09;18.50;99.90
54680;DHT22;40578;53.178;5.846;2023-07-20T11:05:31;18.70;99.90
54680;DHT22;40578;53.178;5.846;2023-07-20T11:07:57;18.60;99.90
54680;DHT22;40578;53.178;5.846;2023-07-20T11:10:23;18.80;99.90
54680;DHT22;40578;53.178;5.846;2023-07-20T11:13:17;18.90;99.90
54680;DHT22;40578;53.178;5.846;2023-07-20T11:18:27;19.20;99.90
54680;DHT22;40578;53.178;5.846;2023-07-20T11:20:53;19.20;99.90
54680;DHT22;40578;53.178;5.846;2023-07-20T11:23:22;19.10;99.90
54680;DHT22;40578;53.178;5.846;2023-07-20T11:25:49;18.90;99.90
54680;DHT22;40578;53.178;5.846;2023-07-20T11:28:15;19.00;99.90
54680;DHT22;40578;53.178;5.846;2023-07-20T11:30:41;19.20;99.90
54680;DHT22;40578;53.178;5.846;2023-07-20T11:33:09;19.30;99.90
54680;DHT22;40578;53.178;5.846;2023-07-20T11:35:36;19.70;99.90
54680;DHT22;40578;53.178;5.846;2023-07-20T11:38:07;20.00;99.90
54680;DHT22;40578;53.178;5.846;2023-07-20T11:40:32;20.00;99.90
54680;DHT22;40578;53.178;5.846;2023-07-20T11:42:58;19.90;99.90
54680;DHT22;40578;53.178;5.846;2023-07-20T11:45:25;19.70;99.90
54680;DHT22;40578;53.178;5.846;2023-07-20T11:47:50;19.60;99.90
54680;DHT22;40578;53.178;5.846;2023-07-20T11:50:16;19.70;99.90
54680;DHT22;40578;53.178;5.846;2023-07-20T11:52:42;19.90;99.90
54680;DHT22;40578;53.178;5.846;2023-07-20T11:55:08;20.00;99.90
54680;DHT22;40578;53.178;5.846;2023-07-20T11:57:34;19.80;99.90
54680;DHT22;40578;53.178;5.846;2023-07-20T12:00:03;19.90;99.90
54680;DHT22;40578;53.178;5.846;2023-07-20T12:02:34;19.90;99.90
54680;DHT22;40578;53.178;5.846;2023-07-20T12:05:01;20.10;99.90
54680;DHT22;40578;53.178;5.846;2023-07-20T12:07:28;20.20;99.90
54680;DHT22;40578;53.178;5.846;2023-07-20T12:10:07;20.40;99.90
54680;DHT22;40578;53.178;5.846;2023-07-20T12:12:35;20.20;99.90
54680;DHT22;40578;53.178;5.846;2023-07-20T12:15:32;20.30;99.90
54680;DHT22;40578;53.178;5.846;2023-07-20T12:18:00;20.50;99.90
54680;DHT22;40578;53.178;5.846;2023-07-20T12:22:52;20.50;99.90
54680;DHT22;40578;53.178;5.846;2023-07-20T12:25:19;20.40;99.90
54680;DHT22;40578;53.178;5.846;2023-07-20T12:27:46;20.40;99.90
54680;DHT22;40578;53.178;5.846;2023-07-20T12:30:13;20.40;99.90
54680;DHT22;40578;53.178;5.846;2023-07-20T12:32:42;20.40;99.90
54680;DHT22;40578;53.178;5.846;2023-07-20T12:35:08;20.40;99.90
54680;DHT22;40578;53.178;5.846;2023-07-20T12:37:34;20.40;99.90
54680;DHT22;40578;53.178;5.846;2023-07-20T12:39:59;20.50;99.90
54680;DHT22;40578;53.178;5.846;2023-07-20T12:42:25;20.40;99.90
54680;DHT22;40578;53.178;5.846;2023-07-20T12:44:51;20.60;99.90
54680;DHT22;40578;53.178;5.846;2023-07-20T12:47:17;20.60;99.90
54680;DHT22;40578;53.178;5.846;2023-07-20T12:49:44;20.80;99.90
54680;DHT22;40578;53.178;5.846;2023-07-20T12:52:11;20.90;99.90
54680;DHT22;40578;53.178;5.846;2023-07-20T12:54:36;20.80;99.90
54680;DHT22;40578;53.178;5.846;2023-07-20T12:57:02;20.70;99.90
54680;DHT22;40578;53.178;5.846;2023-07-20T12:59:29;20.60;99.90
54680;DHT22;40578;53.178;5.846;2023-07-20T13:01:54;20.80;99.90
54680;DHT22;40578;53.178;5.846;2023-07-20T13:04:20;20.80;99.90
54680;DHT22;40578;53.178;5.846;2023-07-20T13:06:46;21.00;99.90
54680;DHT22;40578;53.178;5.846;2023-07-20T13:09:11;21.20;99.90
54680;DHT22;40578;53.178;5.846;2023-07-20T13:11:37;21.30;99.90
54680;DHT22;40578;53.178;5.846;2023-07-20T13:14:02;21.40;99.90
54680;DHT22;40578;53.178;5.846;2023-07-20T13:16:28;21.30;99.90
54680;DHT22;40578;53.178;5.846;2023-07-20T13:18:54;21.30;99.90
54680;DHT22;40578;53.178;5.846;2023-07-20T13:21:19;21.20;99.90
54680;DHT22;40578;53.178;5.846;2023-07-20T13:23:48;21.30;99.90
54680;DHT22;40578;53.178;5.846;2023-07-20T13:26:14;21.20;99.90
54680;DHT22;40578;53.178;5.846;2023-07-20T13:28:40;21.40;99.90
54680;DHT22;40578;53.178;5.846;2023-07-20T13:31:06;21.30;99.90
54680;DHT22;40578;53.178;5.846;2023-07-20T13:33:33;21.40;99.90
54680;DHT22;40578;53.178;5.846;2023-07-20T13:35:59;21.40;99.90
54680;DHT22;40578;53.178;5.846;2023-07-20T13:38:25;21.20;99.90
54680;DHT22;40578;53.178;5.846;2023-07-20T13:40:50;21.10;99.90
54680;DHT22;40578;53.178;5.846;2023-07-20T13:43:16;21.00;99.90
54680;DHT22;40578;53.178;5.846;2023-07-20T13:45:41;21.10;99.90
54680;DHT22;40578;53.178;5.846;2023-07-20T13:48:07;21.00;99.90
54680;DHT22;40578;53.178;5.846;2023-07-20T13:50:33;21.00;99.90
54680;DHT22;40578;53.178;5.846;2023-07-20T13:52:58;21.20;99.90
54680;DHT22;40578;53.178;5.846;2023-07-20T13:55:25;21.30;99.90
54680;DHT22;40578;53.178;5.846;2023-07-20T13:57:51;21.30;99.90
54680;DHT22;40578;53.178;5.846;2023-07-20T14:00:17;21.30;99.90
54680;DHT22;40578;53.178;5.846;2023-07-20T14:02:42;21.30;99.90
54680;DHT22;40578;53.178;5.846;2023-07-20T14:05:08;21.50;99.90
54680;DHT22;40578;53.178;5.846;2023-07-20T14:07:35;21.60;99.90
54680;DHT22;40578;53.178;5.846;2023-07-20T14:10:01;21.80;99.90
54680;DHT22;40578;53.178;5.846;2023-07-20T14:12:26;21.80;99.90
54680;DHT22;40578;53.178;5.846;2023-07-20T14:14:54;21.80;99.90
54680;DHT22;40578;53.178;5.846;2023-07-20T14:17:19;21.80;99.90
54680;DHT22;40578;53.178;5.846;2023-07-20T14:19:45;21.90;99.90
54680;DHT22;40578;53.178;5.846;2023-07-20T14:22:11;21.80;99.90
54680;DHT22;40578;53.178;5.846;2023-07-20T14:24:36;21.90;99.90
54680;DHT22;40578;53.178;5.846;2023-07-20T14:27:02;22.10;99.90
54680;DHT22;40578;53.178;5.846;2023-07-20T14:29:28;22.10;99.90
54680;DHT22;40578;53.178;5.846;2023-07-20T14:31:57;22.10;99.90
54680;DHT22;40578;53.178;5.846;2023-07-20T14:34:22;22.10;99.90
54680;DHT22;40578;53.178;5.846;2023-07-20T14:36:48;22.00;99.90
54680;DHT22;40578;53.178;5.846;2023-07-20T14:39:15;22.00;99.90
54680;DHT22;40578;53.178;5.846;2023-07-20T14:41:40;21.60;99.90
54680;DHT22;40578;53.178;5.846;2023-07-20T14:44:06;21.20;99.90
54680;DHT22;40578;53.178;5.846;2023-07-20T14:46:32;21.00;99.90
54680;DHT22;40578;53.178;5.846;2023-07-20T14:48:57;20.70;99.90
54680;DHT22;40578;53.178;5.846;2023-07-20T14:51:24;20.90;99.90
54680;DHT22;40578;53.178;5.846;2023-07-20T14:53:51;21.10;99.90
54680;DHT22;40578;53.178;5.846;2023-07-20T14:56:17;21.30;99.90
54680;DHT22;40578;53.178;5.846;2023-07-20T14:58:43;21.70;99.90
54680;DHT22;40578;53.178;5.846;2023-07-20T15:01:08;22.10;99.90
54680;DHT22;40578;53.178;5.846;2023-07-20T15:03:34;22.20;99.90
54680;DHT22;40578;53.178;5.846;2023-07-20T15:06:00;22.10;99.90
54680;DHT22;40578;53.178;5.846;2023-07-20T15:08:26;21.70;99.90
54680;DHT22;40578;53.178;5.846;2023-07-20T15:10:51;21.60;99.90
54680;DHT22;40578;53.178;5.846;2023-07-20T15:13:17;21.60;99.90
54680;DHT22;40578;53.178;5.846;2023-07-20T15:15:43;21.90;99.90
54680;DHT22;40578;53.178;5.846;2023-07-20T15:18:08;22.00;99.90
54680;DHT22;40578;53.178;5.846;2023-07-20T15:20:34;22.10;99.90
54680;DHT22;40578;53.178;5.846;2023-07-20T15:23:00;22.10;99.90
54680;DHT22;40578;53.178;5.846;2023-07-20T15:25:26;22.00;99.90
54680;DHT22;40578;53.178;5.846;2023-07-20T15:27:52;21.70;99.90
54680;DHT22;40578;53.178;5.846;2023-07-20T15:30:18;21.30;99.90
54680;DHT22;40578;53.178;5.846;2023-07-20T15:32:44;21.20;99.90
54680;DHT22;40578;53.178;5.846;2023-07-20T15:35:10;21.40;99.90
54680;DHT22;40578;53.178;5.846;2023-07-20T15:37:36;21.60;99.90
54680;DHT22;40578;53.178;5.846;2023-07-20T15:40:02;21.80;99.90
54680;DHT22;40578;53.178;5.846;2023-07-20T15:42:32;21.80;99.90
54680;DHT22;40578;53.178;5.846;2023-07-20T15:44:58;21.90;99.90
54680;DHT22;40578;53.178;5.846;2023-07-20T15:47:23;22.00;99.90